createdAt,value
2019-03-05T00:01:09.404Z,48.28
2019-03-05T00:03:46.910Z,48.80
2019-03-05T00:06:23.953Z,49.27
2019-03-05T00:09:00.634Z,49.10
2019-03-05T00:11:38.915Z,51.80
2019-03-05T00:14:15.654Z,51.77
2019-03-05T00:16:52.642Z,49.18
2019-03-05T00:19:29.671Z,50.38
2019-03-05T00:22:07.939Z,49.35
2019-03-05T00:25:09.547Z,47.55
2019-03-05T00:28:16.226Z,46.13
2019-03-05T00:31:02.040Z,43.92
2019-03-05T00:34:27.009Z,41.53
2019-03-05T00:37:11.160Z,39.95
2019-03-05T00:40:25.824Z,36.25
2019-03-05T00:43:31.499Z,36.40
2019-03-05T00:46:47.992Z,37.42
2019-03-05T00:50:02.614Z,36.70
2019-03-05T00:53:04.179Z,35.28
2019-03-05T00:56:14.362Z,36.00
2019-03-05T00:59:14.237Z,35.48
2019-03-05T01:02:22.138Z,36.63
2019-03-05T01:05:59.546Z,35.35
2019-03-05T01:08:36.717Z,35.88
2019-03-05T01:11:13.497Z,35.48
2019-03-05T01:13:50.417Z,33.85
2019-03-05T01:16:30.396Z,34.40
2019-03-05T01:19:07.639Z,34.70
2019-03-05T01:21:44.600Z,32.90
2019-03-05T01:24:22.416Z,32.55
2019-03-05T01:26:58.662Z,31.60
2019-03-05T01:29:35.725Z,31.55
2019-03-05T01:32:29.123Z,32.00
2019-03-05T01:35:13.766Z,30.50
2019-03-05T01:37:50.634Z,31.42
2019-03-05T01:40:54.911Z,29.87
2019-03-05T01:43:31.674Z,28.10
2019-03-05T01:46:08.837Z,27.25
2019-03-05T01:48:44.973Z,27.02
2019-03-05T01:51:21.341Z,24.92
2019-03-05T01:53:58.083Z,24.43
2019-03-05T01:56:36.481Z,24.72
2019-03-05T01:59:13.469Z,24.25
2019-03-05T02:01:50.396Z,23.27
2019-03-05T02:04:28.113Z,25.37
2019-03-05T02:07:04.942Z,23.20
2019-03-05T02:09:41.910Z,24.63
2019-03-05T02:12:18.893Z,24.00
2019-03-05T02:14:56.903Z,25.43
2019-03-05T02:17:33.716Z,24.52
2019-03-05T02:20:13.691Z,25.17
2019-03-05T02:23:03.327Z,24.43
2019-03-05T02:26:02.672Z,27.52
2019-03-05T02:29:04.243Z,25.08
2019-03-05T02:32:05.818Z,25.75
2019-03-05T02:35:05.577Z,25.05
2019-03-05T02:38:13.142Z,24.07
2019-03-05T02:41:31.496Z,23.70
2019-03-05T02:45:01.948Z,26.10
2019-03-05T02:48:11.363Z,24.23
2019-03-05T02:51:28.330Z,22.40
2019-03-05T02:54:56.374Z,21.23
2019-03-05T02:57:29.028Z,21.02
2019-03-05T03:00:06.411Z,22.13
2019-03-05T03:03:07.660Z,22.42
2019-03-05T03:06:05.325Z,20.75
2019-03-05T03:08:42.237Z,22.48
2019-03-05T03:11:19.470Z,22.40
2019-03-05T03:13:56.301Z,22.80
2019-03-05T03:16:33.844Z,21.45
2019-03-05T03:19:10.559Z,21.70
2019-03-05T03:21:47.454Z,21.80
2019-03-05T03:24:24.121Z,22.22
2019-03-05T03:27:00.965Z,23.02
2019-03-05T03:29:37.869Z,23.35
2019-03-05T03:32:15.684Z,22.65
2019-03-05T03:34:52.645Z,23.42
2019-03-05T03:37:29.523Z,22.13
2019-03-05T03:40:07.417Z,22.62
2019-03-05T03:42:45.846Z,24.30
2019-03-05T03:45:25.192Z,25.90
2019-03-05T03:48:01.678Z,22.95
2019-03-05T03:50:38.559Z,34.92
2019-03-05T03:53:14.729Z,24.25
2019-03-05T03:55:51.325Z,23.98
2019-03-05T03:58:28.995Z,23.70
2019-03-05T04:01:07.176Z,24.23
2019-03-05T04:03:44.093Z,24.32
2019-03-05T04:06:21.384Z,23.50
2019-03-05T04:08:58.224Z,24.63
2019-03-05T04:11:35.123Z,25.25
2019-03-05T04:14:12.072Z,24.65
2019-03-05T04:16:49.164Z,25.23
2019-03-05T04:19:30.341Z,24.43
2019-03-05T04:22:06.712Z,25.52
2019-03-05T04:24:43.756Z,24.55
2019-03-05T04:27:20.379Z,24.20
2019-03-05T04:29:57.037Z,24.10
2019-03-05T04:32:33.136Z,24.67
2019-03-05T04:35:11.082Z,24.10
2019-03-05T04:37:47.955Z,24.65
2019-03-05T04:40:24.647Z,24.60
2019-03-05T04:43:04.877Z,24.07
2019-03-05T04:46:02.364Z,24.90
2019-03-05T04:48:40.359Z,24.20
2019-03-05T04:51:33.453Z,24.10
2019-03-05T04:54:10.513Z,24.72
2019-03-05T04:56:47.452Z,24.95
2019-03-05T04:59:24.887Z,24.82
2019-03-05T05:02:01.823Z,24.90
2019-03-05T05:04:39.243Z,24.95
2019-03-05T05:07:16.056Z,24.05
2019-03-05T05:09:53.325Z,24.90
2019-03-05T05:12:32.113Z,24.72
2019-03-05T05:15:11.514Z,25.43
2019-03-05T05:17:48.714Z,24.95
2019-03-05T05:20:25.560Z,24.00
2019-03-05T05:23:02.718Z,25.27
2019-03-05T05:25:38.910Z,24.55
2019-03-05T05:28:32.988Z,24.70
2019-03-05T05:31:09.458Z,24.25
2019-03-05T05:33:46.357Z,25.12
2019-03-05T05:36:23.066Z,25.70
2019-03-05T05:38:59.583Z,25.20
2019-03-05T05:41:38.109Z,26.42
2019-03-05T05:44:14.726Z,25.62
2019-03-05T05:46:51.662Z,26.70
2019-03-05T05:49:28.328Z,25.90
2019-03-05T05:52:04.930Z,27.07
2019-03-05T05:54:41.977Z,25.77
2019-03-05T05:57:18.714Z,25.55
2019-03-05T05:59:55.343Z,26.07
2019-03-05T06:02:34.286Z,26.75
2019-03-05T06:05:11.360Z,27.05
2019-03-05T06:07:48.076Z,27.15
2019-03-05T06:10:26.447Z,26.90
2019-03-05T06:13:04.762Z,25.40
2019-03-05T06:15:41.670Z,26.77
2019-03-05T06:18:18.371Z,27.22
2019-03-05T06:20:54.977Z,27.20
2019-03-05T06:23:32.220Z,29.82
2019-03-05T06:26:10.239Z,28.92
2019-03-05T06:29:04.030Z,28.05
2019-03-05T06:31:42.040Z,27.27
2019-03-05T06:34:19.497Z,27.87
2019-03-05T06:37:01.449Z,28.83
2019-03-05T06:39:38.504Z,30.08
2019-03-05T06:42:15.371Z,28.55
2019-03-05T06:44:52.175Z,29.42
2019-03-05T06:47:28.848Z,29.52
2019-03-05T06:50:06.159Z,30.05
2019-03-05T06:52:44.086Z,28.83
2019-03-05T06:55:21.175Z,29.15
2019-03-05T06:57:57.852Z,29.45
2019-03-05T07:00:39.060Z,31.30
2019-03-05T07:03:16.775Z,29.92
2019-03-05T07:06:26.849Z,31.97
2019-03-05T07:09:24.315Z,31.45
2019-03-05T07:12:20.452Z,30.20
2019-03-05T07:15:25.175Z,29.98
2019-03-05T07:21:20.055Z,29.18
2019-03-05T07:24:37.135Z,31.17
2019-03-05T07:27:15.350Z,30.55
2019-03-05T07:29:51.910Z,30.70
2019-03-05T07:32:29.465Z,30.12
2019-03-05T07:35:06.792Z,31.52
2019-03-05T07:37:43.760Z,31.42
2019-03-05T07:40:20.684Z,30.52
2019-03-05T07:42:57.201Z,30.88
2019-03-05T07:45:34.555Z,28.27
2019-03-05T07:48:11.655Z,28.32
2019-03-05T07:50:48.742Z,28.73
2019-03-05T07:53:27.137Z,27.45
2019-03-05T07:56:04.528Z,27.67
2019-03-05T07:58:42.592Z,27.90
2019-03-05T08:01:22.487Z,28.10
2019-03-05T08:04:00.078Z,29.07
2019-03-05T08:06:37.036Z,28.55
2019-03-05T08:09:37.454Z,29.48
2019-03-05T08:12:28.098Z,30.27
2019-03-05T08:15:15.396Z,29.25
2019-03-05T08:17:52.415Z,30.30
2019-03-05T08:20:28.724Z,31.05
2019-03-05T08:23:05.803Z,31.35
2019-03-05T08:25:42.205Z,30.70
2019-03-05T08:28:19.650Z,30.50
2019-03-05T08:30:56.679Z,29.87
2019-03-05T08:33:33.791Z,29.23
2019-03-05T08:36:10.635Z,30.77
2019-03-05T08:38:47.656Z,30.37
2019-03-05T08:41:24.395Z,29.92
2019-03-05T08:44:01.543Z,32.00
2019-03-05T08:46:38.919Z,32.28
2019-03-05T08:49:17.895Z,30.70
2019-03-05T08:51:54.516Z,31.52
2019-03-05T08:54:31.965Z,32.85
2019-03-05T08:57:08.674Z,31.10
2019-03-05T08:59:45.182Z,29.75
2019-03-05T09:02:22.517Z,31.12
2019-03-05T09:04:59.911Z,33.13
2019-03-05T09:07:36.773Z,31.75
2019-03-05T09:10:17.511Z,31.50
2019-03-05T09:12:54.379Z,31.90
2019-03-05T09:15:32.121Z,31.93
2019-03-05T09:18:08.671Z,31.35
2019-03-05T09:21:01.463Z,30.20
2019-03-05T09:23:39.452Z,30.55
2019-03-05T09:26:16.483Z,32.88
2019-03-05T09:28:53.611Z,32.73
2019-03-05T09:31:30.926Z,31.25
2019-03-05T09:34:08.167Z,30.80
2019-03-05T09:36:51.024Z,32.38
2019-03-05T09:39:23.642Z,31.62
2019-03-05T09:42:01.063Z,29.60
2019-03-05T09:44:37.743Z,30.05
2019-03-05T09:47:14.452Z,29.63
2019-03-05T09:49:51.368Z,29.23
2019-03-05T09:52:28.687Z,29.23
2019-03-05T09:55:05.716Z,28.55
2019-03-05T09:57:43.716Z,28.23
2019-03-05T10:00:22.960Z,28.32
2019-03-05T10:03:00.922Z,27.87
2019-03-05T10:05:38.404Z,27.45
2019-03-05T10:08:15.748Z,27.17
2019-03-05T10:10:52.987Z,26.65
2019-03-05T10:13:30.175Z,26.05
2019-03-05T10:16:07.082Z,26.62
2019-03-05T10:18:44.665Z,26.68
2019-03-05T10:21:22.593Z,26.20
2019-03-05T10:24:09.712Z,26.90
2019-03-05T10:26:38.424Z,27.50
2019-03-05T10:29:15.456Z,26.77
2019-03-05T10:31:52.487Z,26.90
2019-03-05T10:34:29.503Z,25.95
2019-03-05T10:37:12.609Z,25.50
2019-03-05T10:39:45.349Z,25.12
2019-03-05T10:42:22.552Z,26.52
2019-03-05T10:44:59.670Z,25.52
2019-03-05T10:47:36.693Z,25.52
2019-03-05T10:50:16.597Z,24.47
2019-03-05T10:52:54.052Z,23.95
2019-03-05T10:55:31.694Z,24.27
2019-03-05T10:58:08.725Z,24.85
2019-03-05T11:00:47.860Z,24.45
2019-03-05T11:03:26.401Z,25.00
2019-03-05T11:06:03.875Z,24.00
2019-03-05T11:08:41.472Z,25.05
2019-03-05T11:11:18.680Z,25.48
2019-03-05T11:13:56.052Z,25.12
2019-03-05T11:16:33.488Z,28.77
2019-03-05T11:19:11.254Z,26.60
2019-03-05T11:21:48.158Z,26.75
2019-03-05T11:24:25.252Z,28.30
2019-03-05T11:27:02.582Z,30.55
2019-03-05T11:29:39.358Z,31.68
2019-03-05T11:32:16.072Z,32.28
2019-03-05T11:34:53.442Z,28.95
2019-03-05T11:37:30.173Z,29.27
2019-03-05T11:40:07.346Z,29.15
2019-03-05T11:42:43.933Z,30.12
2019-03-05T11:45:28.933Z,29.95
2019-03-05T11:48:06.461Z,29.60
2019-03-05T11:50:43.945Z,30.45
2019-03-05T11:53:21.899Z,29.50
2019-03-05T11:55:58.844Z,29.67
2019-03-05T11:58:36.458Z,27.65
2019-03-05T12:01:23.126Z,24.70
2019-03-05T12:04:01.957Z,25.77
2019-03-05T12:06:39.098Z,25.40
2019-03-05T12:09:16.940Z,22.52
2019-03-05T12:11:53.691Z,23.00
2019-03-05T12:14:30.533Z,22.42
2019-03-05T12:17:07.771Z,22.30
2019-03-05T12:19:44.784Z,21.57
2019-03-05T12:22:21.683Z,21.20
2019-03-05T12:25:01.708Z,20.68
2019-03-05T12:27:37.031Z,21.27
2019-03-05T12:30:16.479Z,21.00
2019-03-05T12:32:53.297Z,21.90
2019-03-05T12:35:30.927Z,22.02
2019-03-05T12:38:08.274Z,22.42
2019-03-05T12:40:45.324Z,21.95
2019-03-05T12:43:22.446Z,22.58
2019-03-05T12:46:00.065Z,22.30
2019-03-05T12:48:40.405Z,21.45
2019-03-05T12:51:15.863Z,21.65
2019-03-05T12:53:53.311Z,21.40
2019-03-05T12:56:30.930Z,21.65
2019-03-05T12:59:08.100Z,21.40
2019-03-05T13:01:45.964Z,21.02
2019-03-05T13:04:22.967Z,21.23
2019-03-05T13:07:00.394Z,20.82
2019-03-05T13:09:37.351Z,21.20
2019-03-05T13:12:14.689Z,21.75
2019-03-05T13:14:51.724Z,20.25
2019-03-05T13:17:29.140Z,21.33
2019-03-05T13:20:06.001Z,20.75
2019-03-05T13:22:45.613Z,20.43
2019-03-05T13:25:24.319Z,21.07
2019-03-05T13:28:03.972Z,20.52
2019-03-05T13:30:40.462Z,21.15
2019-03-05T13:33:18.140Z,19.98
2019-03-05T13:35:54.921Z,20.27
2019-03-05T13:38:32.390Z,21.17
2019-03-05T13:41:12.150Z,20.82
2019-03-05T13:43:47.022Z,20.82
2019-03-05T13:46:25.841Z,20.15
2019-03-05T13:53:14.737Z,19.57
2019-03-05T13:56:23.607Z,21.40
2019-03-05T13:59:36.744Z,20.92
2019-03-05T14:02:14.175Z,21.60
2019-03-05T14:05:05.549Z,21.75
2019-03-05T14:08:20.001Z,21.73
2019-03-05T14:10:57.027Z,22.52
2019-03-05T14:13:34.016Z,21.50
2019-03-05T14:16:13.620Z,21.27
2019-03-05T14:18:50.642Z,22.27
2019-03-05T14:21:27.754Z,22.98
2019-03-05T14:24:05.700Z,22.75
2019-03-05T14:26:42.983Z,22.30
2019-03-05T14:29:19.996Z,22.32
2019-03-05T14:31:57.450Z,23.50
2019-03-05T14:34:34.297Z,23.25
2019-03-05T14:37:11.770Z,25.92
2019-03-05T14:39:49.071Z,25.32
2019-03-05T14:42:26.151Z,25.32
2019-03-05T14:45:03.331Z,25.48
2019-03-05T14:47:42.150Z,24.95
2019-03-05T14:50:19.338Z,25.82
2019-03-05T14:52:56.653Z,26.50
2019-03-05T14:55:34.719Z,28.05
2019-03-05T14:58:11.649Z,28.07
2019-03-05T15:00:48.352Z,28.85
2019-03-05T15:03:24.814Z,27.85
2019-03-05T15:06:01.548Z,26.77
2019-03-05T15:08:38.590Z,27.85
2019-03-05T15:11:15.501Z,29.87
2019-03-05T15:13:52.448Z,31.10
2019-03-05T15:16:29.329Z,29.82
2019-03-05T15:19:06.782Z,27.50
2019-03-05T15:21:43.079Z,27.93
2019-03-05T15:24:20.367Z,27.82
2019-03-05T15:26:57.296Z,30.80
2019-03-05T15:29:34.389Z,35.60
2019-03-05T15:32:12.296Z,36.68
2019-03-05T15:34:48.490Z,35.88
2019-03-05T15:37:25.157Z,35.92
2019-03-05T15:40:02.947Z,36.03
2019-03-05T15:42:39.434Z,33.73
2019-03-05T15:45:18.337Z,33.20
2019-03-05T15:47:55.569Z,35.80
2019-03-05T15:50:32.599Z,36.83
2019-03-05T15:53:11.530Z,40.05
2019-03-05T15:55:48.752Z,43.00
2019-03-05T15:58:26.238Z,42.43
2019-03-05T16:01:03.680Z,46.65
2019-03-05T16:03:41.969Z,50.90
2019-03-05T16:06:19.462Z,52.65
2019-03-05T16:08:57.887Z,53.35
2019-03-05T16:11:35.434Z,55.25
2019-03-05T16:14:12.280Z,58.42
2019-03-05T16:16:51.680Z,56.45
2019-03-05T16:19:28.349Z,60.70
2019-03-05T16:22:04.921Z,57.78
2019-03-05T16:24:42.070Z,57.70
2019-03-05T16:27:18.924Z,56.50
2019-03-05T16:29:56.913Z,56.30
2019-03-05T16:32:41.317Z,53.92
2019-03-05T16:35:34.989Z,51.05
2019-03-05T16:38:28.690Z,50.17
2019-03-05T16:41:26.991Z,50.92
2019-03-05T16:44:11.351Z,50.10
2019-03-05T16:47:05.268Z,49.90
2019-03-05T16:50:03.151Z,49.23
2019-03-05T16:53:01.524Z,48.80
2019-03-05T16:55:48.854Z,47.38
2019-03-05T16:58:50.187Z,46.48
2019-03-05T17:01:43.628Z,47.65
2019-03-05T17:04:34.433Z,45.48
2019-03-05T17:07:38.592Z,47.60
2019-03-05T17:10:26.015Z,47.15
2019-03-05T17:13:03.298Z,47.80
2019-03-05T17:15:40.236Z,47.27
2019-03-05T17:18:17.046Z,45.78
2019-03-05T17:20:53.922Z,46.68
2019-03-05T17:23:30.839Z,45.63
2019-03-05T17:26:08.019Z,46.48
2019-03-05T17:28:44.842Z,46.08
2019-03-05T17:31:22.208Z,44.05
2019-03-05T17:33:58.757Z,44.55
2019-03-05T17:36:35.832Z,45.15
2019-03-05T17:39:19.558Z,45.78
2019-03-05T17:41:56.690Z,46.68
2019-03-05T17:44:34.825Z,47.45
2019-03-05T17:47:11.582Z,47.80
2019-03-05T17:49:48.628Z,45.55
2019-03-05T17:52:25.803Z,46.23
2019-03-05T17:55:02.997Z,45.95
2019-03-05T17:57:41.491Z,45.45
2019-03-05T18:00:26.772Z,45.98
2019-03-05T18:03:04.812Z,47.15
2019-03-05T18:05:42.509Z,48.23
2019-03-05T18:08:19.466Z,51.37
2019-03-05T18:10:56.379Z,55.08
2019-03-05T18:13:34.349Z,55.48
2019-03-05T18:16:11.441Z,59.58
2019-03-05T18:18:48.463Z,66.02
2019-03-05T18:21:25.413Z,68.62
2019-03-05T18:24:03.114Z,70.52
2019-03-05T18:26:40.626Z,69.35
2019-03-05T18:29:18.420Z,70.62
2019-03-05T18:31:55.708Z,69.65
2019-03-05T18:34:32.776Z,70.00
2019-03-05T18:37:09.705Z,70.28
2019-03-05T18:39:46.915Z,68.67
2019-03-05T18:42:23.653Z,67.97
2019-03-05T18:45:00.397Z,68.72
2019-03-05T18:47:38.538Z,69.90
2019-03-05T18:50:17.684Z,70.72
2019-03-05T18:52:55.533Z,68.92
2019-03-05T18:55:32.628Z,67.47
2019-03-05T18:58:09.486Z,67.53
2019-03-05T19:00:46.890Z,68.75
2019-03-05T19:03:23.725Z,65.32
2019-03-05T19:06:00.905Z,67.12
2019-03-05T19:08:37.961Z,65.30
2019-03-05T19:11:14.951Z,65.20
2019-03-05T19:13:53.986Z,62.78
2019-03-05T19:16:38.267Z,62.03
2019-03-05T19:19:15.150Z,63.23
2019-03-05T19:21:51.966Z,62.88
2019-03-05T19:24:29.435Z,59.83
2019-03-05T19:27:06.742Z,60.95
2019-03-05T19:29:43.205Z,62.70
2019-03-05T19:32:21.056Z,59.80
2019-03-05T19:34:58.281Z,58.92
2019-03-05T19:37:35.042Z,56.55
2019-03-05T19:40:13.629Z,54.60
2019-03-05T19:42:50.261Z,52.98
2019-03-05T19:45:27.257Z,53.58
2019-03-05T19:48:04.352Z,52.73
2019-03-05T19:50:41.192Z,52.70
2019-03-05T19:53:18.270Z,51.33
2019-03-05T19:55:55.132Z,50.08
2019-03-05T19:58:31.510Z,48.75
2019-03-05T20:01:24.239Z,48.15
2019-03-05T20:04:01.176Z,49.10
2019-03-05T20:06:39.018Z,49.67
2019-03-05T20:09:33.550Z,50.12
2019-03-05T20:12:10.618Z,50.38
2019-03-05T20:14:47.623Z,52.67
2019-03-05T20:17:24.330Z,50.40
2019-03-05T20:20:01.327Z,51.60
2019-03-05T20:22:38.028Z,48.85
2019-03-05T20:25:17.826Z,48.28
2019-03-05T20:27:54.970Z,48.28
2019-03-05T20:30:31.819Z,47.93
2019-03-05T20:33:08.850Z,47.15
2019-03-05T20:35:47.115Z,48.52
2019-03-05T20:38:24.301Z,47.60
2019-03-05T20:41:03.247Z,46.88
2019-03-05T20:43:40.718Z,45.63
2019-03-05T20:46:21.656Z,45.50
2019-03-05T20:48:58.788Z,44.75
2019-03-05T20:51:35.921Z,46.42
2019-03-05T20:54:12.545Z,46.23
2019-03-05T20:56:49.432Z,45.38
2019-03-05T20:59:26.305Z,45.35
2019-03-05T21:02:03.102Z,45.98
2019-03-05T21:04:40.326Z,45.12
2019-03-05T21:07:18.106Z,45.52
2019-03-05T21:09:55.517Z,45.67
2019-03-05T21:12:32.604Z,45.80
2019-03-05T21:15:09.740Z,45.85
2019-03-05T21:17:47.375Z,46.58
2019-03-05T21:20:24.998Z,46.77
2019-03-05T21:23:02.227Z,45.15
2019-03-05T21:25:39.167Z,45.45
2019-03-05T21:28:16.010Z,46.53
2019-03-05T21:30:52.951Z,47.35
2019-03-05T21:33:30.666Z,46.60
2019-03-05T21:36:07.533Z,48.02
2019-03-05T21:38:44.717Z,46.90
2019-03-05T21:41:21.887Z,46.08
2019-03-05T21:43:58.596Z,47.40
2019-03-05T21:46:37.009Z,45.80
2019-03-05T21:49:14.143Z,47.75
2019-03-05T21:51:51.111Z,46.23
2019-03-05T21:54:27.903Z,46.63
2019-03-05T21:57:05.731Z,47.78
2019-03-05T21:59:42.695Z,47.83
2019-03-05T22:02:22.193Z,47.48
2019-03-05T22:04:57.680Z,48.28
2019-03-05T22:07:34.709Z,47.20
2019-03-05T22:10:13.465Z,46.83
2019-03-05T22:12:50.303Z,47.93
2019-03-05T22:15:28.194Z,47.13
2019-03-05T22:18:05.706Z,47.67
2019-03-05T22:20:42.958Z,47.90
2019-03-05T22:23:19.649Z,50.92
2019-03-05T22:25:56.782Z,49.45
2019-03-05T22:28:33.872Z,50.12
2019-03-05T22:31:10.992Z,51.88
2019-03-05T22:33:48.253Z,52.33
2019-03-05T22:36:25.475Z,53.35
2019-03-05T22:39:02.240Z,52.10
2019-03-05T22:41:41.290Z,52.53
2019-03-05T22:44:18.186Z,52.35
2019-03-05T22:46:54.884Z,54.88
2019-03-05T22:49:31.799Z,55.58
2019-03-05T22:52:08.731Z,55.12
2019-03-05T22:54:45.384Z,57.83
2019-03-05T22:57:23.538Z,56.50
2019-03-05T23:00:00.390Z,60.95
2019-03-05T23:02:38.900Z,53.98
2019-03-05T23:05:15.908Z,53.15
2019-03-05T23:07:53.284Z,54.33
2019-03-05T23:10:31.000Z,54.60
2019-03-05T23:13:07.730Z,55.17
2019-03-05T23:15:44.919Z,57.75
2019-03-05T23:18:22.426Z,58.23
2019-03-05T23:20:59.914Z,58.35
2019-03-05T23:23:36.879Z,55.55
2019-03-05T23:26:14.265Z,58.10
2019-03-05T23:28:51.777Z,58.70
2019-03-05T23:31:28.581Z,59.50
2019-03-05T23:34:05.590Z,58.23
2019-03-05T23:36:42.050Z,59.35
2019-03-05T23:39:21.880Z,60.05
2019-03-05T23:41:58.494Z,58.95
2019-03-05T23:44:35.475Z,63.23
2019-03-05T23:47:13.185Z,60.05
2019-03-05T23:49:50.430Z,58.85
2019-03-05T23:52:28.187Z,58.85
2019-03-05T23:55:05.493Z,61.10
2019-03-05T23:57:42.237Z,60.00
